Accueil
METAR-TAF:

METAR-TAF

Aéroports :

Aéroport de Cap Skirring

Cap Skirring, Sénégal

latitude: 12-24N, longitude: 016-45W, altitude: 16 m

Observation

Le bulletin a été fait il y a 1 heure et 18 minutes, à 10:00 UTC
Vent 2 kt de direction variable
Température 31°C
Humidité 75%
Pression 1013 hPa
Visibilité: 3000 m
poussière généralisée

METAR: GOGS 231000Z VRB02KT 3000 DU NSC 31/26 Q1013

Heure: 11:18 (11:18 UTC)

Prévision

Le bulletin a été fait il y a 5 heures et 48 minutes, à 05:30 UTC
Prévision valable du 23 à 06 UTC au 24 à 06 UTC
Vent 5 kt de sud-ouest
Visibilité 10 km ou plus
Nuages épars à une hauteur de 1300 ft

TAF: GOGS 230530Z 2306/2406 22005KT 9999 SCT013

Observations et prévisions météorologiques de plus de 4000 aéroports (messages METAR et TAF).

Les stations disponibles sont représentées par des disques jaunes et rouges sur la carte.

Passer la souris dessus pour voir le nom de la station.

Cliquer dessus pour voir les observations et prévisions météorologiques.

Pour changer de carte: cliquez sur les boutons verts avec une croix noire pour zoomer, sur le bouton vert avec un tiret pour effectuer un zoom arrière, ou sur les flèches vertes pour les cartes adjacentes.


METAR-TAF: